Time;durP1;ratioP1;P1;durP2;ratioP2;P2;SDS_P1;SDS_P2;PMS_P1;PMS_P2;Temp;Humidity;BMP_temperature;BMP_pressure;BME280_temperature;BME280_humidity;BME280_pressure;Samples;Min_cycle;Max_cycle;Signal;HPM_P1;HPM_P2
2022/10/05 00:01:33;;;;;;;2.85;1.83;;;18.50;99.90;;;;;;5048093;28;20054;-74
2022/10/05 00:04:09;;;;;;;;;;;18.40;99.90;;;;;;5051293;28;20033;-75
2022/10/05 00:06:39;;;;;;;3.33;2.10;;;18.40;99.90;;;;;;5000286;28;19960;-70
2022/10/05 00:09:19;;;;;;;3.35;1.70;;;18.40;99.90;;;;;;5034311;28;20045;-71
2022/10/05 00:11:48;;;;;;;6.80;1.77;;;18.40;99.90;;;;;;5070259;28;20128;-71
2022/10/05 00:14:20;;;;;;;3.10;1.50;;;18.40;99.90;;;;;;5015375;28;20052;-70
2022/10/05 00:16:48;;;;;;;7.05;1.70;;;18.40;99.90;;;;;;5029345;28;20092;-71
2022/10/05 00:19:37;;;;;;;5.10;1.63;;;18.40;99.90;;;;;;5047798;28;20127;-70
2022/10/05 00:22:08;;;;;;;4.85;1.77;;;18.40;99.90;;;;;;5048731;28;20454;-73
2022/10/05 00:24:38;;;;;;;5.28;1.73;;;18.40;99.90;;;;;;5050290;28;20033;-71
2022/10/05 00:27:12;;;;;;;6.82;2.38;;;18.40;99.90;;;;;;5014170;28;20053;-71
2022/10/05 00:29:39;;;;;;;5.22;1.85;;;18.40;99.90;;;;;;5032673;28;20139;-71
2022/10/05 00:32:09;;;;;;;5.80;1.60;;;18.40;99.90;;;;;;5031334;28;20499;-71
2022/10/05 00:34:37;;;;;;;6.55;1.85;;;18.40;99.90;;;;;;5003891;28;20440;-70
2022/10/05 00:37:06;;;;;;;4.75;1.70;;;18.40;99.90;;;;;;5032412;28;20132;-71
2022/10/05 00:39:37;;;;;;;4.30;1.75;;;18.40;99.90;;;;;;5035569;28;20446;-70
2022/10/05 00:42:38;;;;;;;5.05;1.80;;;18.40;99.90;;;;;;5031623;28;20402;-70
2022/10/05 00:45:15;;;;;;;3.17;1.90;;;18.40;99.90;;;;;;5032705;28;20092;-71
2022/10/05 00:47:52;;;;;;;5.20;2.25;;;18.40;99.90;;;;;;5016553;28;20068;-71
2022/10/05 00:51:00;;;;;;;2.65;1.60;;;18.40;99.90;;;;;;5050236;28;20093;-71
2022/10/05 00:53:47;;;;;;;3.92;1.90;;;18.40;99.90;;;;;;4999848;28;20073;-74
2022/10/05 00:56:25;;;;;;;;;;;18.40;99.90;;;;;;5016725;28;20288;-71
2022/10/05 00:59:14;;;;;;;3.60;2.00;;;18.40;99.90;;;;;;5032744;28;19932;-71
2022/10/05 01:01:58;;;;;;;8.15;2.40;;;18.40;99.90;;;;;;5032947;28;20076;-72
2022/10/05 01:04:45;;;;;;;3.40;1.77;;;18.40;99.90;;;;;;5016162;28;20134;-71
2022/10/05 01:07:40;;;;;;;5.07;1.75;;;18.40;99.90;;;;;;5015618;28;20044;-71
2022/10/05 01:10:16;;;;;;;3.10;1.80;;;18.30;99.90;;;;;;5032554;28;20041;-71
2022/10/05 01:12:52;;;;;;;2.60;1.80;;;18.30;99.90;;;;;;5015349;28;20428;-72
2022/10/05 01:15:37;;;;;;;5.78;1.75;;;18.30;99.90;;;;;;5015329;28;20057;-71
2022/10/05 01:18:27;;;;;;;4.78;1.45;;;18.20;99.90;;;;;;5015010;28;20430;-72
2022/10/05 01:20:55;;;;;;;3.35;1.85;;;18.20;99.90;;;;;;5015853;28;20123;-71
2022/10/05 01:23:42;;;;;;;4.85;1.90;;;18.20;99.90;;;;;;5032015;28;20467;-71
2022/10/05 01:26:26;;;;;;;8.32;2.00;;;18.20;99.90;;;;;;5032527;28;20497;-71
2022/10/05 01:29:01;;;;;;;4.00;1.67;;;18.20;99.90;;;;;;5032180;28;20479;-72
2022/10/05 01:31:50;;;;;;;5.32;2.25;;;18.10;99.90;;;;;;4999707;28;20052;-71
2022/10/05 01:34:29;;;;;;;3.70;1.58;;;18.10;99.90;;;;;;5049760;28;20384;-71
2022/10/05 01:37:03;;;;;;;3.25;1.80;;;18.10;99.90;;;;;;5015583;28;20087;-72
2022/10/05 01:40:13;;;;;;;3.35;2.00;;;18.10;99.90;;;;;;5015801;28;20148;-71
2022/10/05 01:43:15;;;;;;;5.53;2.17;;;18.10;99.90;;;;;;5006403;28;20091;-70
2022/10/05 01:45:49;;;;;;;3.70;1.60;;;18.10;99.90;;;;;;5031322;28;20396;-71
2022/10/05 01:48:30;;;;;;;3.67;1.83;;;18.10;99.90;;;;;;5032034;28;20137;-71
2022/10/05 01:51:29;;;;;;;2.80;1.88;;;18.10;99.90;;;;;;5005190;28;20041;-71
2022/10/05 01:54:13;;;;;;;4.38;1.73;;;18.10;99.90;;;;;;5031290;28;20131;-73
2022/10/05 01:56:52;;;;;;;2.45;1.65;;;18.10;99.90;;;;;;5031840;28;20097;-71
2022/10/05 01:59:27;;;;;;;4.22;1.90;;;18.00;99.90;;;;;;5031584;28;20488;-71
2022/10/05 02:02:08;;;;;;;5.40;1.83;;;18.00;99.90;;;;;;5031033;28;20060;-70
2022/10/05 02:04:47;;;;;;;3.92;1.85;;;17.90;99.90;;;;;;5031452;28;20148;-70
2022/10/05 02:07:49;;;;;;;4.35;1.73;;;17.90;99.90;;;;;;5014200;28;20059;-73
2022/10/05 02:10:50;;;;;;;4.28;2.00;;;17.90;99.90;;;;;;5014352;28;20143;-71
2022/10/05 02:13:31;;;;;;;3.63;1.75;;;17.90;99.80;;;;;;5043661;28;20048;-71
2022/10/05 02:16:38;;;;;;;3.53;1.60;;;17.90;99.60;;;;;;5014806;28;20049;-71
2022/10/05 02:19:16;;;;;;;3.40;1.90;;;17.80;99.40;;;;;;5013410;28;20061;-71
2022/10/05 02:21:48;;;;;;;5.85;1.60;;;17.80;99.20;;;;;;5014822;28;20080;-72
2022/10/05 02:24:23;;;;;;;3.90;1.50;;;17.80;99.20;;;;;;5014905;28;20496;-70
2022/10/05 02:26:54;;;;;;;3.05;1.73;;;17.80;98.80;;;;;;5031045;28;20063;-74
2022/10/05 02:29:29;;;;;;;4.35;2.28;;;17.70;98.60;;;;;;4998419;28;20049;-72
2022/10/05 02:32:02;;;;;;;4.13;2.42;;;17.80;98.60;;;;;;5030753;28;20444;-70
2022/10/05 02:34:38;;;;;;;5.75;1.67;;;17.80;98.60;;;;;;5031829;28;20471;-70
2022/10/05 02:37:23;;;;;;;3.80;1.52;;;17.80;98.50;;;;;;5032238;28;20045;-71
2022/10/05 02:39:56;;;;;;;2.95;1.83;;;17.80;98.50;;;;;;5014446;28;20048;-70
2022/10/05 02:42:34;;;;;;;4.10;1.67;;;17.70;98.40;;;;;;5014609;28;20454;-71
2022/10/05 02:45:08;;;;;;;6.00;1.80;;;17.70;98.50;;;;;;5047255;28;20076;-71
2022/10/05 02:48:13;;;;;;;2.58;1.98;;;17.70;98.60;;;;;;5014922;28;20075;-72
2022/10/05 02:50:44;;;;;;;6.93;2.10;;;17.80;98.60;;;;;;5046991;28;20049;-70
2022/10/05 02:53:27;;;;;;;2.28;1.63;;;17.70;98.60;;;;;;5035056;28;20048;-70
2022/10/05 02:56:13;;;;;;;3.20;1.80;;;17.80;98.70;;;;;;5015457;28;20529;-70
2022/10/05 02:59:01;;;;;;;5.57;2.88;;;17.70;98.70;;;;;;5034800;28;20055;-71
2022/10/05 03:01:40;;;;;;;2.78;1.70;;;17.70;98.70;;;;;;5011974;28;20056;-73
2022/10/05 03:04:27;;;;;;;2.35;1.33;;;17.70;98.60;;;;;;5054674;28;20045;-71
2022/10/05 03:07:22;;;;;;;3.10;1.67;;;17.80;98.60;;;;;;5021688;28;20057;-72
2022/10/05 03:10:12;;;;;;;3.53;2.30;;;17.80;98.60;;;;;;5021556;28;20052;-72
2022/10/05 03:13:05;;;;;;;3.10;1.90;;;17.80;98.50;;;;;;5072759;28;20051;-71
2022/10/05 03:16:14;;;;;;;3.13;1.63;;;17.80;98.60;;;;;;5020989;28;20162;-74
2022/10/05 03:19:03;;;;;;;4.07;2.33;;;17.70;98.60;;;;;;5071359;28;20056;-71
2022/10/05 03:21:52;;;;;;;6.72;2.50;;;17.70;98.60;;;;;;5037079;28;20486;-71
2022/10/05 03:24:55;;;;;;;4.22;1.63;;;17.70;98.50;;;;;;5021379;28;20052;-71
2022/10/05 03:27:38;;;;;;;2.92;1.55;;;17.80;98.50;;;;;;5054340;28;20127;-70
2022/10/05 03:30:12;;;;;;;2.92;1.52;;;17.80;98.40;;;;;;5021305;28;20060;-72
2022/10/05 03:32:44;;;;;;;2.75;1.60;;;17.70;98.30;;;;;;5038036;28;20076;-74
2022/10/05 03:35:17;;;;;;;2.65;1.60;;;17.80;98.30;;;;;;5037696;28;20052;-72
2022/10/05 03:37:57;;;;;;;5.22;1.70;;;17.70;98.20;;;;;;5053712;28;20056;-73
2022/10/05 03:40:37;;;;;;;3.17;1.63;;;17.80;98.10;;;;;;5037619;28;20048;-71
2022/10/05 03:43:33;;;;;;;5.00;1.77;;;17.70;98.10;;;;;;5036849;28;20056;-71
2022/10/05 03:46:12;;;;;;;3.80;1.67;;;17.70;98.00;;;;;;5049394;28;22104;-72
2022/10/05 03:49:04;;;;;;;2.50;2.03;;;17.70;98.00;;;;;;5017549;28;20335;-71
2022/10/05 03:51:37;;;;;;;5.38;1.65;;;17.70;98.00;;;;;;5017419;28;20048;-72
2022/10/05 03:54:09;;;;;;;3.03;1.63;;;17.70;98.10;;;;;;5033912;28;20049;-72
2022/10/05 03:56:54;;;;;;;3.90;2.08;;;17.80;98.10;;;;;;5034245;28;20158;-70
2022/10/05 03:59:33;;;;;;;5.03;2.20;;;17.70;98.20;;;;;;5001414;28;20052;-70
2022/10/05 04:02:06;;;;;;;2.50;1.50;;;17.80;98.20;;;;;;5017199;28;20111;-71
2022/10/05 04:04:58;;;;;;;6.47;2.08;;;17.70;98.20;;;;;;5033319;28;20127;-71
2022/10/05 04:07:49;;;;;;;6.30;1.83;;;17.70;98.10;;;;;;5049710;28;20055;-72
2022/10/05 04:10:25;;;;;;;3.38;1.70;;;17.70;98.10;;;;;;5033710;28;20060;-72
2022/10/05 04:13:19;;;;;;;7.18;2.05;;;17.70;98.10;;;;;;5066205;28;20049;-72
2022/10/05 04:16:12;;;;;;;5.75;1.90;;;17.70;98.30;;;;;;5026736;28;20052;-71
2022/10/05 04:19:08;;;;;;;5.07;1.70;;;17.70;98.40;;;;;;5031966;28;20075;-71
2022/10/05 04:21:47;;;;;;;3.10;1.95;;;17.70;98.40;;;;;;5032855;28;20045;-71
2022/10/05 04:24:28;;;;;;;4.68;1.70;;;17.70;98.50;;;;;;5049522;28;20448;-71
2022/10/05 04:27:06;;;;;;;6.47;2.13;;;17.70;98.60;;;;;;5049815;28;20049;-71
2022/10/05 04:29:54;;;;;;;6.60;2.55;;;17.70;98.70;;;;;;5032472;28;20391;-71
2022/10/05 04:32:43;;;;;;;3.88;1.80;;;17.70;98.70;;;;;;5024379;28;20344;-70
2022/10/05 04:35:52;;;;;;;3.20;2.05;;;17.70;98.70;;;;;;4997304;28;20099;-71
2022/10/05 04:38:27;;;;;;;4.07;1.50;;;17.60;98.70;;;;;;5012543;28;20045;-74
2022/10/05 04:41:18;;;;;;;8.88;1.85;;;17.70;98.70;;;;;;4980618;28;20192;-71
2022/10/05 04:44:01;;;;;;;2.40;1.48;;;17.70;98.60;;;;;;4996656;28;20112;-72
2022/10/05 04:46:57;;;;;;;3.42;1.60;;;17.70;98.60;;;;;;4996666;28;20128;-72
2022/10/05 04:49:53;;;;;;;5.10;1.65;;;17.70;98.50;;;;;;5012818;28;20033;-70
2022/10/05 04:52:27;;;;;;;3.97;1.67;;;17.70;98.40;;;;;;4996801;28;20056;-70
2022/10/05 04:55:01;;;;;;;4.72;2.03;;;17.70;98.20;;;;;;5011799;28;20047;-72
2022/10/05 04:57:40;;;;;;;5.93;1.58;;;17.70;97.90;;;;;;5022947;28;20100;-72
2022/10/05 05:00:24;;;;;;;4.95;2.00;;;17.70;97.60;;;;;;5007642;28;20093;-72
2022/10/05 05:03:13;;;;;;;6.38;1.70;;;17.70;97.20;;;;;;5009164;28;20045;-75
2022/10/05 05:06:13;;;;;;;4.07;1.80;;;17.70;96.80;;;;;;4987998;28;20053;-72
2022/10/05 05:09:09;;;;;;;5.55;1.55;;;17.80;96.50;;;;;;5002844;28;20056;-73
2022/10/05 05:11:40;;;;;;;4.53;1.77;;;18.00;96.10;;;;;;5015979;28;20427;-71
2022/10/05 05:14:11;;;;;;;3.55;1.90;;;18.20;95.90;;;;;;4993528;28;20053;-71
2022/10/05 05:16:41;;;;;;;5.25;1.55;;;18.30;95.70;;;;;;5011860;28;20554;-70
2022/10/05 05:19:47;;;;;;;3.17;1.65;;;18.50;95.40;;;;;;5012685;28;20060;-71
2022/10/05 05:22:33;;;;;;;3.13;1.75;;;18.70;95.00;;;;;;5037396;28;20142;-71
2022/10/05 05:25:20;;;;;;;3.15;2.20;;;18.90;94.80;;;;;;5049491;28;20110;-72
2022/10/05 05:27:55;;;;;;;4.40;1.73;;;19.10;94.50;;;;;;5015541;28;20053;-71
2022/10/05 05:30:41;;;;;;;3.65;1.70;;;19.30;94.40;;;;;;4998825;28;20057;-72
2022/10/05 05:33:26;;;;;;;3.83;2.30;;;19.50;94.20;;;;;;5031579;28;20526;-72
2022/10/05 05:36:26;;;;;;;6.15;1.80;;;19.60;94.40;;;;;;5015923;28;20544;-72
2022/10/05 05:39:22;;;;;;;3.83;1.83;;;19.80;94.40;;;;;;5015861;28;20513;-73
2022/10/05 05:41:54;;;;;;;3.30;2.10;;;20.00;94.50;;;;;;5015025;28;20056;-71
2022/10/05 05:44:26;;;;;;;5.93;2.15;;;20.10;94.60;;;;;;5049560;28;20138;-71
2022/10/05 05:47:07;;;;;;;5.87;2.80;;;20.40;94.70;;;;;;5047568;28;20511;-72
2022/10/05 05:50:15;;;;;;;3.25;1.80;;;20.60;94.80;;;;;;5016073;28;20124;-72
2022/10/05 05:53:00;;;;;;;6.32;1.98;;;20.70;94.70;;;;;;5031514;28;20049;-74
2022/10/05 05:55:34;;;;;;;2.65;1.70;;;20.90;94.70;;;;;;5014971;28;20487;-71
2022/10/05 05:58:12;;;;;;;2.45;1.50;;;21.10;94.60;;;;;;5030860;28;20076;-71
2022/10/05 06:00:43;;;;;;;5.90;1.70;;;21.10;94.50;;;;;;5015164;28;20114;-72
2022/10/05 06:03:15;;;;;;;3.20;2.00;;;21.20;94.40;;;;;;4998365;28;20134;-73
2022/10/05 06:05:52;;;;;;;5.53;2.00;;;21.40;94.20;;;;;;5014141;28;20053;-71
2022/10/05 06:08:44;;;;;;;6.20;3.22;;;21.50;94.20;;;;;;5048959;28;20048;-71
2022/10/05 06:11:49;;;;;;;4.22;2.50;;;21.70;94.10;;;;;;5031139;28;20128;-74
2022/10/05 06:14:26;;;;;;;7.38;2.33;;;21.90;94.10;;;;;;5030991;28;20120;-71
2022/10/05 06:17:02;;;;;;;14.68;2.78;;;22.10;94.10;;;;;;5013894;28;20056;-79
2022/10/05 06:19:33;;;;;;;11.73;2.90;;;22.30;94.70;;;;;;5029401;28;20048;-78
2022/10/05 06:22:08;;;;;;;6.82;2.15;;;22.50;93.90;;;;;;5029407;28;20554;-73
2022/10/05 06:24:45;;;;;;;9.10;2.65;;;22.70;93.50;;;;;;4997396;28;20515;-72
2022/10/05 06:27:24;;;;;;;3.28;2.50;;;22.80;93.40;;;;;;5029585;28;20056;-71
2022/10/05 06:30:12;;;;;;;5.05;2.13;;;23.00;93.20;;;;;;5046092;28;20041;-72
2022/10/05 06:32:49;;;;;;;6.15;2.28;;;23.20;93.10;;;;;;5046439;28;20052;-71
2022/10/05 06:35:35;;;;;;;8.13;2.47;;;23.40;92.90;;;;;;5045433;28;20041;-71
2022/10/05 06:38:36;;;;;;;9.55;2.97;;;23.40;92.80;;;;;;5013766;28;20045;-71
2022/10/05 06:41:34;;;;;;;4.30;1.65;;;23.40;92.60;;;;;;5029550;28;20036;-71
2022/10/05 06:44:15;;;;;;;5.25;2.53;;;23.50;92.40;;;;;;5029721;28;20407;-72
2022/10/05 06:47:09;;;;;;;5.05;1.92;;;23.60;91.90;;;;;;5058783;28;20052;-72
2022/10/05 06:50:08;;;;;;;4.03;2.80;;;23.50;91.90;;;;;;5048437;28;20087;-71
2022/10/05 06:52:55;;;;;;;;;;;23.50;91.50;;;;;;5034443;28;20505;-72
2022/10/05 06:55:38;;;;;;;8.25;2.55;;;23.50;91.30;;;;;;5028094;28;19982;-71
2022/10/05 06:58:33;;;;;;;6.07;2.03;;;23.60;91.30;;;;;;5036721;28;20220;-71
2022/10/05 07:01:20;;;;;;;3.88;1.63;;;23.60;91.20;;;;;;5018319;28;20079;-78
2022/10/05 07:03:52;;;;;;;5.80;2.15;;;23.60;91.20;;;;;;5035261;28;20071;-78
2022/10/05 07:06:34;;;;;;;4.78;1.60;;;23.70;90.80;;;;;;5027848;28;20045;-71
2022/10/05 07:09:57;;;;;;;4.40;2.40;;;23.70;90.60;;;;;;5043273;28;20033;-72
2022/10/05 07:12:34;;;;;;;4.90;2.40;;;23.60;90.30;;;;;;4945710;29;20052;-71
2022/10/05 07:15:21;;;;;;;12.30;3.90;;;23.60;90.10;;;;;;5011937;28;20052;-72
2022/10/05 07:18:05;;;;;;;6.88;3.20;;;23.70;90.20;;;;;;4991830;28;1347387;-71
2022/10/05 07:20:52;;;;;;;3.80;1.50;;;23.70;90.10;;;;;;5012605;28;20107;-72
2022/10/05 07:23:35;;;;;;;5.10;1.50;;;23.90;90.40;;;;;;5035155;28;20430;-72
2022/10/05 07:26:07;;;;;;;4.35;1.73;;;23.80;90.10;;;;;;5032425;28;20501;-71
2022/10/05 07:28:46;;;;;;;12.18;2.55;;;23.90;90.10;;;;;;5033432;28;20340;-71
2022/10/05 07:31:39;;;;;;;5.88;2.20;;;23.90;90.20;;;;;;5017222;28;20048;-71
2022/10/05 07:34:33;;;;;;;8.40;2.00;;;24.00;89.80;;;;;;5050265;28;20094;-71
2022/10/05 07:40:18;;;;;;;4.68;1.58;;;24.10;90.10;;;;;;5036773;28;20048;-72
2022/10/05 07:43:13;;;;;;;4.43;1.50;;;24.30;89.90;;;;;;5053465;28;20044;-71
2022/10/05 07:46:01;;;;;;;4.22;2.13;;;24.30;89.70;;;;;;5037299;28;20048;-73
2022/10/05 07:48:56;;;;;;;2.85;1.30;;;24.50;89.90;;;;;;5036423;28;20079;-70
2022/10/05 07:51:44;;;;;;;4.47;1.90;;;24.50;89.10;;;;;;5036668;28;20048;-70
2022/10/05 07:54:46;;;;;;;3.30;1.52;;;24.60;89.50;;;;;;5036358;28;20454;-75
2022/10/05 07:57:35;;;;;;;2.85;1.50;;;24.60;89.30;;;;;;5036543;28;20129;-71
2022/10/05 08:00:05;;;;;;;3.30;1.67;;;24.40;88.20;;;;;;5020119;28;20049;-70
2022/10/05 08:03:12;;;;;;;4.50;2.70;;;24.50;88.30;;;;;;5036709;28;20067;-74
2022/10/05 08:05:42;;;;;;;4.63;1.98;;;24.60;88.80;;;;;;5047519;28;20067;-71
2022/10/05 08:08:10;;;;;;;5.68;2.20;;;24.60;88.70;;;;;;5053293;28;20425;-73
2022/10/05 08:10:48;;;;;;;3.67;2.00;;;24.80;88.40;;;;;;5020264;28;20453;-71
2022/10/05 08:13:38;;;;;;;6.00;1.75;;;24.90;88.90;;;;;;5052235;28;20426;-71
2022/10/05 08:16:13;;;;;;;5.07;2.22;;;24.90;89.40;;;;;;5070993;28;20052;-71
2022/10/05 08:18:56;;;;;;;;;;;24.90;89.60;;;;;;5053469;28;20079;-72
2022/10/05 08:21:38;;;;;;;3.63;1.75;;;25.00;89.30;;;;;;5019638;28;19959;-73
2022/10/05 08:24:31;;;;;;;2.75;1.48;;;24.80;88.70;;;;;;5052504;28;20076;-74
2022/10/05 08:27:22;;;;;;;3.95;1.70;;;24.80;87.90;;;;;;5070468;28;20555;-71
2022/10/05 08:30:01;;;;;;;3.08;2.17;;;24.80;88.50;;;;;;5070650;28;20078;-71
2022/10/05 08:32:37;;;;;;;7.25;2.53;;;24.80;88.70;;;;;;5019762;28;20078;-71
2022/10/05 08:35:42;;;;;;;3.70;1.92;;;24.70;88.40;;;;;;5051744;28;20487;-70
2022/10/05 08:38:16;;;;;;;4.72;2.15;;;24.60;87.70;;;;;;4972227;28;20579;-71
2022/10/05 08:41:18;;;;;;;3.13;1.70;;;24.50;88.30;;;;;;5059803;28;20072;-72
2022/10/05 08:44:29;;;;;;;2.58;1.30;;;24.50;89.00;;;;;;5035954;28;20067;-71
2022/10/05 08:47:27;;;;;;;3.80;2.05;;;24.50;87.60;;;;;;5051438;28;20048;-74
2022/10/05 08:49:55;;;;;;;2.85;1.30;;;24.40;86.00;;;;;;5034050;28;20067;-71
2022/10/05 08:52:29;;;;;;;5.85;2.35;;;24.40;86.80;;;;;;5051447;28;20549;-74
2022/10/05 08:55:05;;;;;;;4.28;2.13;;;24.20;87.70;;;;;;5034904;28;20573;-71
2022/10/05 08:58:42;;;;;;;3.65;1.60;;;24.10;87.60;;;;;;5051933;28;20123;-72
2022/10/05 09:01:50;;;;;;;3.20;1.70;;;24.30;88.20;;;;;;4966682;28;20042;-72
2022/10/05 09:04:29;;;;;;;3.58;1.88;;;24.40;87.80;;;;;;4981596;28;20175;-72
2022/10/05 09:07:21;;;;;;;3.08;1.60;;;24.50;88.00;;;;;;5014911;28;20047;-73
2022/10/05 09:09:54;;;;;;;3.10;1.60;;;24.60;86.50;;;;;;5015152;28;20044;-73
2022/10/05 09:12:57;;;;;;;6.97;2.40;;;24.50;86.90;;;;;;5031382;28;20049;-71
2022/10/05 09:15:50;;;;;;;2.63;1.80;;;24.60;87.70;;;;;;5030962;28;20107;-71
2022/10/05 09:18:51;;;;;;;3.28;1.90;;;24.60;87.60;;;;;;5014913;28;20415;-72
2022/10/05 09:21:42;;;;;;;3.80;1.95;;;24.80;86.60;;;;;;5031197;28;20056;-74
2022/10/05 09:24:21;;;;;;;6.80;2.65;;;24.70;85.60;;;;;;5049263;28;20041;-71
2022/10/05 09:27:01;;;;;;;4.63;2.00;;;24.70;85.70;;;;;;5015053;28;20103;-77
2022/10/05 09:30:10;;;;;;;6.32;2.10;;;24.50;85.90;;;;;;5031486;28;20095;-72
2022/10/05 09:33:06;;;;;;;4.32;1.67;;;24.60;86.90;;;;;;5027435;28;20099;-72
2022/10/05 09:35:59;;;;;;;4.78;1.75;;;24.60;85.90;;;;;;5030552;28;20430;-72
2022/10/05 09:38:55;;;;;;;3.30;1.60;;;24.60;86.20;;;;;;5030959;28;20103;-71
2022/10/05 09:41:47;;;;;;;3.05;1.60;;;24.70;85.30;;;;;;5030586;28;20049;-73
2022/10/05 09:44:44;;;;;;;4.53;1.95;;;24.70;86.20;;;;;;4998451;28;20104;-74
2022/10/05 09:47:27;;;;;;;4.13;1.63;;;24.80;86.50;;;;;;5030620;28;20067;-72
2022/10/05 09:50:10;;;;;;;2.53;1.67;;;24.80;87.20;;;;;;5031007;28;20131;-71
2022/10/05 09:53:13;;;;;;;4.53;1.92;;;24.80;86.40;;;;;;5027042;28;20406;-72
2022/10/05 09:55:53;;;;;;;7.25;2.53;;;24.50;86.20;;;;;;5019883;28;20475;-71
2022/10/05 09:58:49;;;;;;;3.65;1.70;;;24.50;86.90;;;;;;5050472;28;20491;-72
2022/10/05 10:01:50;;;;;;;3.55;2.00;;;24.60;86.90;;;;;;5050585;28;20048;-71
2022/10/05 10:04:18;;;;;;;4.43;1.63;;;24.60;86.60;;;;;;5058529;28;20482;-72
2022/10/05 10:07:30;;;;;;;2.80;1.55;;;24.70;86.90;;;;;;5033966;28;20498;-72
2022/10/05 10:10:19;;;;;;;4.88;1.83;;;24.60;88.00;;;;;;5019769;28;20111;-71
2022/10/05 10:13:14;;;;;;;2.38;1.60;;;24.70;88.10;;;;;;5034230;28;20067;-71
2022/10/05 10:16:04;;;;;;;2.53;1.40;;;24.50;87.00;;;;;;5067877;28;20095;-75
2022/10/05 10:19:04;;;;;;;3.08;1.70;;;24.50;87.30;;;;;;5049398;28;20162;-71
2022/10/05 10:21:53;;;;;;;3.00;2.08;;;24.40;85.90;;;;;;5033293;28;20062;-73
2022/10/05 10:24:46;;;;;;;3.05;1.77;;;24.40;85.90;;;;;;5050317;28;20064;-71
2022/10/05 10:27:19;;;;;;;2.35;1.73;;;24.50;86.30;;;;;;5033611;28;20076;-71
2022/10/05 10:30:07;;;;;;;3.25;1.77;;;24.70;86.00;;;;;;5050256;28;20439;-72
2022/10/05 10:32:57;;;;;;;3.75;1.77;;;24.50;86.10;;;;;;5032633;28;20075;-73
2022/10/05 10:35:31;;;;;;;5.78;1.70;;;24.40;86.20;;;;;;5068229;28;20052;-73
2022/10/05 10:38:15;;;;;;;3.13;2.03;;;24.40;86.50;;;;;;5033059;28;20487;-70
2022/10/05 10:40:46;;;;;;;3.60;1.92;;;24.20;87.00;;;;;;5050613;28;20052;-70
2022/10/05 10:43:48;;;;;;;5.07;2.00;;;24.20;86.80;;;;;;5049796;28;20045;-71
2022/10/05 10:46:38;;;;;;;3.53;2.47;;;24.10;86.90;;;;;;5033977;28;20080;-72
2022/10/05 10:50:04;;;;;;;4.47;1.80;;;24.10;86.40;;;;;;5048027;28;20048;-72
2022/10/05 10:52:56;;;;;;;3.03;1.80;;;24.10;85.90;;;;;;4954304;28;20065;-72
2022/10/05 10:55:42;;;;;;;2.53;1.77;;;24.10;86.10;;;;;;4969975;28;20058;-71
2022/10/05 10:58:41;;;;;;;4.20;1.90;;;24.30;86.70;;;;;;5045018;28;20839;-72
2022/10/05 11:01:46;;;;;;;7.78;2.53;;;24.40;86.40;;;;;;5068216;28;20040;-71
2022/10/05 11:04:41;;;;;;;2.65;1.70;;;24.40;86.90;;;;;;5033095;28;20049;-72
2022/10/05 11:07:34;;;;;;;4.25;2.30;;;24.50;86.40;;;;;;5050307;28;20597;-72
2022/10/05 11:10:09;;;;;;;2.55;1.52;;;24.60;86.30;;;;;;5049927;28;20128;-71
2022/10/05 11:13:08;;;;;;;4.18;1.60;;;24.50;86.80;;;;;;5036378;28;20501;-73
2022/10/05 11:16:17;;;;;;;3.70;1.65;;;24.40;84.20;;;;;;5071713;28;20049;-71
2022/10/05 11:18:51;;;;;;;3.03;1.40;;;24.40;85.20;;;;;;5070541;28;20084;-71
2022/10/05 11:21:35;;;;;;;6.18;1.90;;;24.40;85.50;;;;;;5071090;28;20098;-71
2022/10/05 11:24:09;;;;;;;4.43;1.70;;;24.40;86.40;;;;;;5053925;28;20049;-72
2022/10/05 11:26:56;;;;;;;4.40;1.98;;;24.20;84.60;;;;;;5037269;28;20051;-71
2022/10/05 11:30:01;;;;;;;2.70;1.75;;;24.10;84.10;;;;;;5069662;28;20041;-72
2022/10/05 11:32:41;;;;;;;3.63;1.77;;;24.10;83.80;;;;;;5049281;28;20115;-73
2022/10/05 11:35:36;;;;;;;4.85;2.08;;;24.20;83.90;;;;;;5024132;28;20049;-73
2022/10/05 11:38:33;;;;;;;2.88;1.75;;;24.10;82.30;;;;;;5032220;28;20041;-74
2022/10/05 11:41:13;;;;;;;4.10;1.63;;;24.20;82.90;;;;;;5030293;28;20148;-74
2022/10/05 11:43:59;;;;;;;3.85;2.25;;;24.30;83.00;;;;;;5033789;28;20068;-74
2022/10/05 11:46:52;;;;;;;3.33;1.90;;;24.30;83.90;;;;;;5043892;28;20511;-74
2022/10/05 11:49:38;;;;;;;3.03;1.75;;;24.40;83.80;;;;;;5034722;28;20048;-75
2022/10/05 11:52:17;;;;;;;2.63;1.90;;;24.20;82.90;;;;;;5014906;28;20048;-72
2022/10/05 11:54:51;;;;;;;5.07;1.75;;;24.30;82.00;;;;;;5027301;28;20124;-73
2022/10/05 11:57:44;;;;;;;4.38;1.67;;;24.20;84.90;;;;;;5058207;28;20465;-73
2022/10/05 12:00:33;;;;;;;5.97;2.28;;;24.20;85.00;;;;;;5047118;28;20045;-74
2022/10/05 12:03:28;;;;;;;2.85;1.88;;;24.10;82.80;;;;;;5047332;28;20051;-75
2022/10/05 12:06:10;;;;;;;2.50;1.70;;;24.10;83.50;;;;;;5049406;28;20045;-73
2022/10/05 12:08:51;;;;;;;3.92;2.10;;;24.00;82.50;;;;;;5036839;28;20059;-72
2022/10/05 12:11:45;;;;;;;2.75;2.05;;;24.00;83.50;;;;;;5050932;28;20548;-73
2022/10/05 12:14:16;;;;;;;2.95;1.88;;;24.00;84.50;;;;;;5035085;28;20729;-73
2022/10/05 12:17:07;;;;;;;4.55;1.98;;;24.00;83.40;;;;;;5032017;28;20098;-72
2022/10/05 12:19:44;;;;;;;4.53;1.92;;;24.00;83.90;;;;;;5014113;28;20429;-72
2022/10/05 12:22:37;;;;;;;3.20;1.73;;;24.10;82.60;;;;;;5041403;28;20072;-72
2022/10/05 12:25:18;;;;;;;2.67;1.30;;;24.00;82.50;;;;;;5044880;28;20427;-71
2022/10/05 12:27:52;;;;;;;4.97;1.90;;;23.90;82.20;;;;;;5038227;28;20060;-73
2022/10/05 12:30:57;;;;;;;2.83;1.73;;;23.80;82.20;;;;;;5037355;28;20052;-72
2022/10/05 12:33:37;;;;;;;2.58;1.58;;;23.60;82.80;;;;;;5038503;28;20113;-73
2022/10/05 12:36:19;;;;;;;2.35;1.60;;;23.50;83.10;;;;;;5035961;28;20055;-75
2022/10/05 12:39:20;;;;;;;2.15;1.75;;;23.40;83.60;;;;;;5068364;28;20457;-72
2022/10/05 12:42:11;;;;;;;3.13;1.65;;;23.30;84.40;;;;;;5011775;28;20614;-71
2022/10/05 12:45:08;;;;;;;2.58;1.75;;;23.30;83.60;;;;;;5035888;28;20095;-73
2022/10/05 12:48:17;;;;;;;4.78;2.22;;;23.30;82.30;;;;;;5060543;28;20056;-72
2022/10/05 12:50:52;;;;;;;4.22;2.38;;;23.40;83.80;;;;;;5044410;28;20045;-72
2022/10/05 12:53:27;;;;;;;3.08;1.70;;;23.40;83.80;;;;;;5032826;28;20062;-72
2022/10/05 12:56:15;;;;;;;2.95;1.52;;;23.40;84.00;;;;;;5048164;28;20048;-72
2022/10/05 12:59:16;;;;;;;2.38;1.40;;;23.40;82.70;;;;;;5049181;28;20564;-72
2022/10/05 13:02:15;;;;;;;2.90;1.85;;;23.40;83.90;;;;;;5047718;28;20099;-72
2022/10/05 13:05:01;;;;;;;3.88;2.42;;;23.40;84.30;;;;;;5027757;28;20048;-74
2022/10/05 13:07:56;;;;;;;4.07;2.08;;;23.40;84.40;;;;;;5008283;28;20049;-73
2022/10/05 13:10:32;;;;;;;4.53;2.00;;;23.50;86.10;;;;;;5044043;28;20052;-73
2022/10/05 13:13:27;;;;;;;17.17;2.50;;;23.40;86.30;;;;;;4903188;28;20054;-75
2022/10/05 13:15:59;;;;;;;3.13;1.60;;;23.30;84.40;;;;;;5044510;28;20052;-71
2022/10/05 13:18:54;;;;;;;3.97;1.88;;;23.20;84.30;;;;;;5065558;28;20079;-73
2022/10/05 13:21:47;;;;;;;2.85;1.92;;;23.20;85.70;;;;;;5061723;28;20387;-73
2022/10/05 13:24:34;;;;;;;5.65;1.90;;;23.20;86.90;;;;;;5044077;28;20051;-72
2022/10/05 13:27:17;;;;;;;3.38;1.90;;;23.10;87.60;;;;;;5039007;28;20059;-73
2022/10/05 13:30:21;;;;;;;3.58;2.10;;;23.10;88.70;;;;;;5043566;28;20040;-73
2022/10/05 13:33:16;;;;;;;5.05;2.05;;;22.90;88.50;;;;;;4973089;28;20046;-71
2022/10/05 13:36:13;;;;;;;3.67;1.80;;;22.90;89.20;;;;;;5030606;28;20095;-73
2022/10/05 13:39:15;;;;;;;6.05;2.70;;;22.90;88.70;;;;;;5045692;28;20119;-73
2022/10/05 13:41:54;;;;;;;5.55;1.80;;;22.90;89.70;;;;;;5034625;28;20037;-72
2022/10/05 13:44:33;;;;;;;3.72;1.85;;;22.90;89.70;;;;;;5004709;28;20060;-72
2022/10/05 13:47:12;;;;;;;3.58;2.85;;;22.90;89.30;;;;;;4999657;28;20057;-73
2022/10/05 13:50:04;;;;;;;4.43;2.03;;;22.90;89.80;;;;;;5067749;28;20036;-73
2022/10/05 13:53:05;;;;;;;4.00;1.92;;;22.90;89.70;;;;;;5050174;28;20407;-72
2022/10/05 13:55:48;;;;;;;3.13;2.03;;;22.80;89.80;;;;;;5050869;28;20453;-72
2022/10/05 13:58:37;;;;;;;4.13;1.70;;;22.70;89.50;;;;;;5051860;28;20621;-71
2022/10/05 14:01:13;;;;;;;6.40;2.00;;;22.70;89.70;;;;;;5039922;28;20398;-71
2022/10/05 14:04:15;;;;;;;3.88;2.25;;;22.60;90.00;;;;;;5034527;28;20087;-73
2022/10/05 14:06:44;;;;;;;5.15;2.08;;;22.70;90.00;;;;;;5043546;28;20045;-71
2022/10/05 14:09:26;;;;;;;3.72;1.85;;;22.70;89.50;;;;;;5012827;28;20124;-71
2022/10/05 14:12:03;;;;;;;3.92;2.25;;;22.60;89.20;;;;;;5047409;28;20056;-73
2022/10/05 14:14:40;;;;;;;6.45;2.38;;;22.50;88.60;;;;;;5050828;28;20041;-71
2022/10/05 14:17:34;;;;;;;8.85;2.50;;;22.50;88.50;;;;;;5028299;28;20056;-71
2022/10/05 14:20:21;;;;;;;3.65;2.10;;;22.40;88.70;;;;;;5031983;28;20071;-73
2022/10/05 14:23:24;;;;;;;4.85;2.15;;;22.40;89.00;;;;;;5049951;28;20481;-72
2022/10/05 14:25:55;;;;;;;4.75;2.13;;;22.40;89.10;;;;;;5051311;28;20417;-72
2022/10/05 14:28:32;;;;;;;3.03;1.80;;;22.30;89.80;;;;;;5048597;28;20040;-74